Ana Sayfa
METAR-TAF:

METAR-TAF

Havaalanları :

Morrisville-Stowe State Airport

Morrisville, Vermont, Amerika Birleşik Devletleri

Enlem: 44-32-10N, Boylam: 072-36-58W, yükseklik: 223 m

Güncel hava durumu gözlemi

Rapor saat 17:54 UTC de 16 dakika önce yapıldı.
Sakin rüzgar
Sıcaklık 8°C
Nem 87%
Basınç 1003 hPa
Görüş mesafesi: 16.1 km
3100 ft yükseklikte çok bulutlu
hafif yağmur

METAR: KMVL 101754Z AUTO 00000KT 10SM -RA OVC031 08/06 A2963 RMK AO2 RAB1656 SLP039 P0001 60001 T00780061 10117 20078 53006

Saat: 13:10 (18:10 UTC)


TAF: eksik

4.000'den fazla havaalanı için hava durumu gözlemleri ve tahminleri (METAR ve TAF raporları).

Kullanılabilir istasyonlar harita üzerinde sarı ve kırmızı noktalarla gösterilir.

İstasyonun adını görmek için fareyi noktanın üzerinde gezdirin.

Sonrasında hava gözlem ve tahminlerini görmek için tıklayın.

Haritayı değiştirmek için: yaklaştırmak için siyah artı işaretli yeşil düğmeye ve uzaklaştırmak için de eksi işaretli düğmeye hızla tıklayın; bitişik haritalar için yeşil okları kullanın.


METAR-TAF: